createdAt,value
2023-03-06T00:00:50.288Z,98861.03
2023-03-06T00:03:19.525Z,98868.50
2023-03-06T00:05:47.488Z,98850.88
2023-03-06T00:08:14.919Z,98853.13
2023-03-06T00:10:42.531Z,98854.16
2023-03-06T00:13:13.613Z,98862.50
2023-03-06T00:15:42.063Z,98865.16
2023-03-06T00:18:09.678Z,98857.97
2023-03-06T00:20:40.503Z,98859.03
2023-03-06T00:23:08.830Z,98859.03
2023-03-06T00:25:38.786Z,98852.06
2023-03-06T00:28:06.765Z,98866.06
2023-03-06T00:30:34.568Z,98843.31
2023-03-06T00:33:01.904Z,98855.56
2023-03-06T00:35:31.242Z,98852.91
2023-03-06T00:37:59.878Z,98849.84
2023-03-06T00:40:27.553Z,98848.47
2023-03-06T00:42:54.808Z,98851.94
2023-03-06T00:45:22.464Z,98860.03
2023-03-06T00:47:49.774Z,98858.69
2023-03-06T00:50:17.484Z,98848.97
2023-03-06T00:52:44.693Z,98859.09
2023-03-06T00:55:12.663Z,98843.41
2023-03-06T00:57:39.958Z,98860.69
2023-03-06T01:00:08.784Z,98850.78
2023-03-06T01:02:36.363Z,98842.53
2023-03-06T01:05:04.620Z,98848.88
2023-03-06T01:07:34.170Z,98846.69
2023-03-06T01:10:02.002Z,98847.84
2023-03-06T01:12:29.276Z,98840.97
2023-03-06T01:14:58.069Z,98839.69
2023-03-06T01:17:25.559Z,98844.88
2023-03-06T01:19:53.107Z,98845.22
2023-03-06T01:22:20.437Z,98847.50
2023-03-06T01:24:48.121Z,98840.19
2023-03-06T01:27:15.529Z,98841.59
2023-03-06T01:29:44.450Z,98841.25
2023-03-06T01:32:11.837Z,98840.31
2023-03-06T01:34:39.409Z,98835.16
2023-03-06T01:37:06.675Z,98832.94
2023-03-06T01:39:34.229Z,98828.22
2023-03-06T01:42:01.732Z,98835.75
2023-03-06T01:44:29.343Z,98831.88
2023-03-06T01:46:56.677Z,98832.84
2023-03-06T01:49:29.518Z,98822.13
2023-03-06T01:52:23.416Z,98810.69
2023-03-06T01:54:57.096Z,98821.47
2023-03-06T01:57:30.113Z,98816.41
2023-03-06T02:00:25.761Z,98822.59
2023-03-06T02:03:06.902Z,98825.88
2023-03-06T02:05:37.842Z,98816.69
2023-03-06T02:08:06.794Z,98815.06
2023-03-06T02:10:34.734Z,98812.16
2023-03-06T02:13:02.789Z,98821.81
2023-03-06T02:15:30.814Z,98816.56
2023-03-06T02:18:00.489Z,98820.56
2023-03-06T02:20:34.472Z,98811.94
2023-03-06T02:23:24.800Z,98818.56
2023-03-06T02:25:53.930Z,98812.97
2023-03-06T02:28:22.934Z,98817.97
2023-03-06T02:30:53.431Z,98817.00
2023-03-06T02:33:24.273Z,98820.78
2023-03-06T02:36:10.816Z,98815.97
2023-03-06T02:38:50.180Z,98803.72
2023-03-06T02:41:19.674Z,98809.22
2023-03-06T02:43:49.030Z,98806.25
2023-03-06T02:46:16.814Z,98803.41
2023-03-06T02:48:44.338Z,98810.88
2023-03-06T02:51:11.887Z,98810.25
2023-03-06T02:53:39.188Z,98799.19
2023-03-06T02:56:07.213Z,98797.59
2023-03-06T02:58:35.798Z,98796.75
2023-03-06T03:01:04.012Z,98794.84
2023-03-06T03:03:31.577Z,98801.41
2023-03-06T03:06:00.339Z,98790.59
2023-03-06T03:08:32.874Z,98787.59
2023-03-06T03:11:04.512Z,98794.06
2023-03-06T03:13:38.589Z,98793.69
2023-03-06T03:16:09.862Z,98798.81
2023-03-06T03:18:37.277Z,98776.59
2023-03-06T03:21:10.554Z,98798.81
2023-03-06T03:23:38.109Z,98791.03
2023-03-06T03:26:08.619Z,98790.66
2023-03-06T03:28:39.099Z,98782.78
2023-03-06T03:31:09.241Z,98782.84
2023-03-06T03:33:36.879Z,98793.38
2023-03-06T03:36:07.087Z,98783.91
2023-03-06T03:38:36.994Z,98790.53
2023-03-06T03:41:05.116Z,98771.53
2023-03-06T03:43:32.653Z,98786.56
2023-03-06T03:46:01.031Z,98770.66
2023-03-06T03:48:29.197Z,98786.34
2023-03-06T03:51:11.981Z,98785.75
2023-03-06T03:53:44.705Z,98775.34
2023-03-06T03:56:14.780Z,98774.59
2023-03-06T03:58:50.738Z,98782.47
2023-03-06T04:01:18.440Z,98767.38
2023-03-06T04:03:45.991Z,98760.78
2023-03-06T04:06:15.283Z,98772.91
2023-03-06T04:08:43.238Z,98769.69
2023-03-06T04:11:10.837Z,98763.16
2023-03-06T04:13:38.204Z,98757.44
2023-03-06T04:16:06.944Z,98768.44
2023-03-06T04:18:36.014Z,98768.78
2023-03-06T04:21:06.635Z,98766.38
2023-03-06T04:23:34.399Z,98769.91
2023-03-06T04:26:02.379Z,98761.72
2023-03-06T04:28:29.837Z,98764.47
2023-03-06T04:30:58.723Z,98753.34
2023-03-06T04:33:26.594Z,98767.41
2023-03-06T04:35:55.110Z,98752.41
2023-03-06T04:38:26.869Z,98753.75
2023-03-06T04:40:54.575Z,98761.78
2023-03-06T04:43:21.955Z,98754.97
2023-03-06T04:45:49.529Z,98754.75
2023-03-06T04:48:18.626Z,98766.34
2023-03-06T04:50:46.634Z,98758.25
2023-03-06T04:53:14.746Z,98761.78
2023-03-06T04:55:42.740Z,98768.25
2023-03-06T04:58:12.516Z,98773.53
2023-03-06T05:00:40.246Z,98755.78
2023-03-06T05:03:08.562Z,98762.28
2023-03-06T05:05:36.122Z,98770.13
2023-03-06T05:08:03.641Z,98772.88
2023-03-06T05:10:31.462Z,98773.22
2023-03-06T05:12:58.698Z,98757.91
2023-03-06T05:15:26.266Z,98776.06
2023-03-06T05:17:53.631Z,98772.91
2023-03-06T05:20:21.371Z,98770.97
2023-03-06T05:22:48.690Z,98762.00
2023-03-06T05:25:16.268Z,98766.63
2023-03-06T05:27:44.035Z,98764.25
2023-03-06T05:30:13.857Z,98772.88
2023-03-06T05:32:41.626Z,98780.06
2023-03-06T05:35:17.176Z,98768.16
2023-03-06T05:37:44.560Z,98786.81
2023-03-06T05:40:12.738Z,98767.41
2023-03-06T05:42:40.052Z,98779.88
2023-03-06T05:45:09.118Z,98774.19
2023-03-06T05:47:36.542Z,98789.59
2023-03-06T05:50:05.714Z,98780.22
2023-03-06T05:52:32.948Z,98792.75
2023-03-06T05:55:00.510Z,98790.66
2023-03-06T05:57:27.773Z,98793.97
2023-03-06T05:59:55.336Z,98799.28
2023-03-06T06:02:22.927Z,98802.06
2023-03-06T06:04:50.523Z,98792.75
2023-03-06T06:07:17.996Z,98796.63
2023-03-06T06:09:46.336Z,98809.56
2023-03-06T06:12:14.160Z,98815.75
2023-03-06T06:14:41.731Z,98807.38
2023-03-06T06:17:09.128Z,98812.88
2023-03-06T06:19:36.794Z,98810.81
2023-03-06T06:22:04.401Z,98821.66
2023-03-06T06:24:32.579Z,98821.88
2023-03-06T06:27:03.335Z,98818.25
2023-03-06T06:29:31.464Z,98825.25
2023-03-06T06:31:59.821Z,98837.03
2023-03-06T06:34:28.319Z,98829.69
2023-03-06T06:36:55.668Z,98835.84
2023-03-06T06:39:23.932Z,98833.53
2023-03-06T06:42:09.538Z,98841.63
2023-03-06T06:44:40.524Z,98835.19
2023-03-06T06:47:25.108Z,98844.09
2023-03-06T06:49:55.353Z,98845.00
2023-03-06T06:52:24.363Z,98832.50
2023-03-06T06:54:52.875Z,98829.38
2023-03-06T06:57:20.172Z,98834.94
2023-03-06T06:59:47.836Z,98827.91
2023-03-06T07:02:16.063Z,98831.06
2023-03-06T07:05:00.729Z,98827.72
2023-03-06T07:07:31.097Z,98831.44
2023-03-06T07:09:58.714Z,98828.16
2023-03-06T07:12:26.159Z,98830.09
2023-03-06T07:14:53.706Z,98832.63
2023-03-06T07:17:20.927Z,98828.38
2023-03-06T07:19:48.661Z,98835.06
2023-03-06T07:22:16.068Z,98834.31
2023-03-06T07:24:43.596Z,98839.56
2023-03-06T07:27:10.859Z,98834.00
2023-03-06T07:29:38.511Z,98846.41
2023-03-06T07:32:06.134Z,98839.41
2023-03-06T07:34:33.734Z,98834.59
2023-03-06T07:37:00.961Z,98841.66
2023-03-06T07:39:30.157Z,98831.91
2023-03-06T07:41:58.745Z,98837.56
2023-03-06T07:44:26.720Z,98838.84
2023-03-06T07:46:54.164Z,98840.06
2023-03-06T07:49:22.058Z,98842.91
2023-03-06T07:51:49.325Z,98847.19
2023-03-06T07:54:16.940Z,98844.19
2023-03-06T07:56:44.205Z,98850.63
2023-03-06T07:59:12.236Z,98845.63
2023-03-06T08:01:40.357Z,98852.84
2023-03-06T08:04:08.119Z,98844.84
2023-03-06T08:06:35.466Z,98855.56
2023-03-06T08:09:03.393Z,98849.94
2023-03-06T08:11:31.164Z,98846.47
2023-03-06T08:13:59.167Z,98849.84
2023-03-06T08:16:29.103Z,98834.88
2023-03-06T08:18:57.751Z,98843.22
2023-03-06T08:21:27.244Z,98843.38
2023-03-06T08:23:55.282Z,98842.16
2023-03-06T08:26:26.343Z,98846.59
2023-03-06T08:28:55.946Z,98839.41
2023-03-06T08:31:31.956Z,98846.56
2023-03-06T08:34:02.576Z,98835.47
2023-03-06T08:36:30.625Z,98846.22
2023-03-06T08:38:58.497Z,98845.25
2023-03-06T08:41:26.025Z,98842.38
2023-03-06T08:43:53.657Z,98844.75
2023-03-06T08:46:23.889Z,98854.13
2023-03-06T08:48:51.673Z,98853.25
2023-03-06T08:51:20.568Z,98849.09
2023-03-06T08:53:48.437Z,98850.53
2023-03-06T08:56:21.150Z,98851.00
2023-03-06T08:58:49.219Z,98849.28
2023-03-06T09:01:23.099Z,98850.53
2023-03-06T09:03:51.330Z,98855.06
2023-03-06T09:06:18.560Z,98849.50
2023-03-06T09:08:46.166Z,98855.56
2023-03-06T09:11:15.655Z,98859.63
2023-03-06T09:13:43.268Z,98856.72
2023-03-06T09:16:11.717Z,98854.78
2023-03-06T09:18:39.991Z,98853.31
2023-03-06T09:21:08.189Z,98854.09
2023-03-06T09:23:37.265Z,98853.16
2023-03-06T09:26:04.708Z,98841.06
2023-03-06T09:28:34.934Z,98860.13
2023-03-06T09:31:05.580Z,98852.28
2023-03-06T09:33:33.537Z,98852.28
2023-03-06T09:36:02.478Z,98855.38
2023-03-06T09:38:30.113Z,98849.41
2023-03-06T09:43:43.542Z,98848.31
2023-03-06T09:46:16.511Z,98854.38
2023-03-06T09:49:02.872Z,98845.81
2023-03-06T09:51:57.262Z,98839.22
2023-03-06T09:54:37.977Z,98854.72
2023-03-06T09:57:16.862Z,98839.53
2023-03-06T09:59:47.635Z,98855.97
2023-03-06T10:02:21.055Z,98833.75
2023-03-06T10:04:54.718Z,98847.66
2023-03-06T10:07:26.276Z,98846.50
2023-03-06T10:10:01.910Z,98857.44
2023-03-06T10:13:12.655Z,98859.03
2023-03-06T10:15:44.206Z,98847.22
2023-03-06T10:18:13.007Z,98850.97
2023-03-06T10:21:04.724Z,98859.31
2023-03-06T10:24:02.409Z,98846.44
2023-03-06T10:26:40.445Z,98842.47
2023-03-06T10:29:14.708Z,98844.56
2023-03-06T10:31:44.892Z,98842.16
2023-03-06T10:34:15.204Z,98845.41
2023-03-06T10:36:42.854Z,98840.94
2023-03-06T10:39:16.767Z,98851.84
2023-03-06T10:41:45.423Z,98857.13
2023-03-06T10:44:13.479Z,98855.22
2023-03-06T10:46:43.974Z,98841.38
2023-03-06T10:49:14.206Z,98852.09
2023-03-06T10:51:59.782Z,98845.63
2023-03-06T10:54:35.508Z,98844.28
2023-03-06T10:57:29.720Z,98843.31
2023-03-06T11:00:04.736Z,98833.59
2023-03-06T11:02:41.171Z,98834.09
2023-03-06T11:05:21.334Z,98828.47
2023-03-06T11:07:59.467Z,98830.38
2023-03-06T11:10:28.107Z,98833.97
2023-03-06T11:13:19.274Z,98817.16
2023-03-06T11:16:25.484Z,98834.50
2023-03-06T11:19:07.147Z,98827.91
2023-03-06T11:21:36.805Z,98825.91
2023-03-06T11:24:16.362Z,98815.75
2023-03-06T11:27:03.879Z,98821.66
2023-03-06T11:29:38.809Z,98829.97
2023-03-06T11:32:12.652Z,98820.84
2023-03-06T11:35:10.844Z,98822.91
2023-03-06T11:37:59.282Z,98822.09
2023-03-06T11:40:52.918Z,98821.78
2023-03-06T11:43:30.833Z,98817.69
2023-03-06T11:46:07.440Z,98804.00
2023-03-06T11:48:42.343Z,98816.91
2023-03-06T11:51:50.198Z,98814.00
2023-03-06T11:54:17.589Z,98818.97
2023-03-06T11:57:03.887Z,98809.34
2023-03-06T11:59:49.256Z,98813.59
2023-03-06T12:02:33.375Z,98816.75
2023-03-06T12:05:12.913Z,98815.69
2023-03-06T12:08:01.826Z,98801.16
2023-03-06T12:10:34.976Z,98814.78
2023-03-06T12:13:26.139Z,98812.22
2023-03-06T12:16:05.126Z,98809.59
2023-03-06T12:18:47.688Z,98807.66
2023-03-06T12:21:38.976Z,98797.53
2023-03-06T12:24:28.371Z,98807.97
2023-03-06T12:27:26.666Z,98789.47
2023-03-06T12:30:16.057Z,98810.31
2023-03-06T12:33:14.806Z,98793.00
2023-03-06T12:35:54.679Z,98815.94
2023-03-06T12:38:34.404Z,98800.50
2023-03-06T12:41:25.695Z,98798.28
2023-03-06T12:44:11.764Z,98799.72
2023-03-06T12:46:45.018Z,98790.50
2023-03-06T12:49:32.320Z,98797.53
2023-03-06T12:52:02.277Z,98790.69
2023-03-06T12:54:33.456Z,98797.84
2023-03-06T12:57:01.578Z,98792.03
2023-03-06T12:59:40.266Z,98792.47
2023-03-06T13:02:14.238Z,98793.22
2023-03-06T13:04:56.604Z,98792.84
2023-03-06T13:07:57.075Z,98788.50
2023-03-06T13:10:29.046Z,98799.84
2023-03-06T13:12:58.294Z,98796.56
2023-03-06T13:15:42.776Z,98798.97
2023-03-06T13:18:22.265Z,98793.19
2023-03-06T13:20:53.388Z,98797.06
2023-03-06T13:23:30.182Z,98791.53
2023-03-06T13:26:05.286Z,98792.97
2023-03-06T13:28:47.720Z,98795.94
2023-03-06T13:31:27.486Z,98794.69
2023-03-06T13:34:06.491Z,98802.16
2023-03-06T13:36:39.711Z,98792.97
2023-03-06T13:39:11.784Z,98786.59
2023-03-06T13:41:44.610Z,98799.97
2023-03-06T13:44:32.346Z,98803.09
2023-03-06T13:47:17.142Z,98802.28
2023-03-06T13:49:48.046Z,98796.44
2023-03-06T13:52:29.591Z,98799.66
2023-03-06T13:55:23.667Z,98799.00
2023-03-06T13:58:21.963Z,98790.94
2023-03-06T14:01:08.164Z,98791.53
2023-03-06T14:04:14.068Z,98787.38
2023-03-06T14:06:51.561Z,98785.72
2023-03-06T14:09:41.019Z,98781.66
2023-03-06T14:12:26.029Z,98778.63
2023-03-06T14:14:58.024Z,98780.31
2023-03-06T14:17:30.256Z,98790.28
2023-03-06T14:20:05.710Z,98774.34
2023-03-06T14:22:33.308Z,98776.75
2023-03-06T14:25:07.229Z,98791.03
2023-03-06T14:27:45.250Z,98786.97
2023-03-06T14:30:15.949Z,98795.03
2023-03-06T14:32:44.306Z,98788.03
2023-03-06T14:35:32.443Z,98803.41
2023-03-06T14:38:03.148Z,98793.81
2023-03-06T14:40:35.181Z,98788.31
2023-03-06T14:43:18.241Z,98796.78
2023-03-06T14:45:54.736Z,98788.66
2023-03-06T14:48:23.306Z,98787.63
2023-03-06T14:50:58.125Z,98794.78
2023-03-06T14:53:29.897Z,98788.91
2023-03-06T14:56:01.203Z,98797.91
2023-03-06T14:58:43.938Z,98801.38
2023-03-06T15:01:13.367Z,98807.13
2023-03-06T15:03:44.509Z,98797.31
2023-03-06T15:06:27.516Z,98801.28
2023-03-06T15:09:07.488Z,98789.50
2023-03-06T15:12:02.598Z,98797.84
2023-03-06T15:14:42.935Z,98797.72
2023-03-06T15:17:23.007Z,98801.19
2023-03-06T15:19:54.613Z,98793.63
2023-03-06T15:22:37.938Z,98785.34
2023-03-06T15:25:30.254Z,98795.84
2023-03-06T15:28:26.001Z,98789.09
2023-03-06T15:31:17.643Z,98784.31
2023-03-06T15:33:59.692Z,98787.28
2023-03-06T15:36:29.814Z,98789.69
2023-03-06T15:38:58.422Z,98779.28
2023-03-06T15:41:34.101Z,98787.03
2023-03-06T15:44:03.898Z,98765.44
2023-03-06T15:46:31.575Z,98780.94
2023-03-06T15:49:04.319Z,98777.06
2023-03-06T15:51:32.594Z,98774.66
2023-03-06T15:54:11.302Z,98785.50
2023-03-06T15:56:43.334Z,98791.03
2023-03-06T15:59:26.495Z,98787.31
2023-03-06T16:01:54.592Z,98775.09
2023-03-06T16:04:21.952Z,98788.69
2023-03-06T16:06:49.574Z,98778.31
2023-03-06T16:09:16.894Z,98792.44
2023-03-06T16:11:45.148Z,98781.69
2023-03-06T16:14:21.490Z,98784.84
2023-03-06T16:16:50.231Z,98785.06
2023-03-06T16:19:27.848Z,98770.88
2023-03-06T16:21:56.798Z,98784.25
2023-03-06T16:24:26.259Z,98786.28
2023-03-06T16:26:55.040Z,98785.06
2023-03-06T16:29:26.587Z,98787.22
2023-03-06T16:31:56.527Z,98783.41
2023-03-06T16:34:24.726Z,98786.53
2023-03-06T16:36:52.476Z,98784.59
2023-03-06T16:39:36.378Z,98788.28
2023-03-06T16:42:14.451Z,98777.09
2023-03-06T16:44:47.246Z,98779.47
2023-03-06T16:47:14.756Z,98787.63
2023-03-06T16:49:42.383Z,98786.03
2023-03-06T16:52:11.564Z,98773.13
2023-03-06T16:54:38.942Z,98784.84
2023-03-06T16:57:06.559Z,98779.84
2023-03-06T16:59:33.837Z,98784.16
2023-03-06T17:02:01.378Z,98783.91
2023-03-06T17:04:28.652Z,98787.03
2023-03-06T17:06:56.184Z,98787.03
2023-03-06T17:09:23.546Z,98795.50
2023-03-06T17:11:51.084Z,98797.38
2023-03-06T17:14:18.392Z,98801.53
2023-03-06T17:16:46.520Z,98792.59
2023-03-06T17:19:15.330Z,98802.56
2023-03-06T17:21:43.924Z,98804.56
2023-03-06T17:24:11.219Z,98793.56
2023-03-06T17:26:39.186Z,98814.28
2023-03-06T17:29:07.182Z,98821.03
2023-03-06T17:31:35.902Z,98822.22
2023-03-06T17:34:03.742Z,98815.38
2023-03-06T17:36:32.087Z,98819.91
2023-03-06T17:39:02.130Z,98834.06
2023-03-06T17:41:30.034Z,98814.13
2023-03-06T17:43:58.477Z,98832.19
2023-03-06T17:46:26.296Z,98820.91
2023-03-06T17:48:54.346Z,98815.59
2023-03-06T17:51:21.898Z,98826.78
2023-03-06T17:53:49.576Z,98821.91
2023-03-06T17:56:17.215Z,98811.41
2023-03-06T17:58:44.813Z,98803.22
2023-03-06T18:01:24.012Z,98801.25
2023-03-06T18:03:51.712Z,98790.97
2023-03-06T18:06:20.800Z,98790.97
2023-03-06T18:08:51.551Z,98786.56
2023-03-06T18:11:20.603Z,98795.66
2023-03-06T18:13:48.811Z,98784.47
2023-03-06T18:16:19.312Z,98800.00
2023-03-06T18:18:47.282Z,98792.16
2023-03-06T18:21:16.816Z,98794.91
2023-03-06T18:23:44.395Z,98794.84
2023-03-06T18:26:24.213Z,98791.47
2023-03-06T18:28:57.010Z,98799.84
2023-03-06T18:31:33.753Z,98796.22
2023-03-06T18:34:04.696Z,98777.44
2023-03-06T18:36:33.503Z,98789.22
2023-03-06T18:39:03.874Z,98793.13
2023-03-06T18:41:32.396Z,98802.66
2023-03-06T18:44:01.465Z,98802.94
2023-03-06T18:46:34.881Z,98781.06
2023-03-06T18:49:02.581Z,98786.59
2023-03-06T18:51:30.865Z,98804.47
2023-03-06T18:54:02.438Z,98795.91
2023-03-06T18:56:35.700Z,98811.44
2023-03-06T18:59:06.972Z,98814.53
2023-03-06T19:01:35.075Z,98811.72
2023-03-06T19:04:03.614Z,98808.38
2023-03-06T19:06:31.409Z,98802.47
2023-03-06T19:08:58.938Z,98809.16
2023-03-06T19:11:26.939Z,98815.47
2023-03-06T19:13:54.622Z,98808.84
2023-03-06T19:16:24.580Z,98804.44
2023-03-06T19:18:52.159Z,98809.88
2023-03-06T19:21:22.294Z,98796.00
2023-03-06T19:23:49.658Z,98798.19
2023-03-06T19:26:21.033Z,98812.97
2023-03-06T19:28:48.954Z,98810.63
2023-03-06T19:31:20.331Z,98802.72
2023-03-06T19:33:49.436Z,98795.03
2023-03-06T19:36:19.615Z,98794.41
2023-03-06T19:38:52.625Z,98798.59
2023-03-06T19:41:20.198Z,98803.22
2023-03-06T19:43:52.252Z,98801.28
2023-03-06T19:46:21.347Z,98799.22
2023-03-06T19:48:54.782Z,98803.63
2023-03-06T19:51:22.300Z,98806.53
2023-03-06T19:53:49.570Z,98809.31
2023-03-06T19:56:20.954Z,98796.44
2023-03-06T19:58:48.477Z,98797.50
2023-03-06T20:01:21.214Z,98803.63
2023-03-06T20:03:50.679Z,98792.38
2023-03-06T20:06:19.865Z,98796.78
2023-03-06T20:08:47.595Z,98791.66
2023-03-06T20:11:23.560Z,98808.75
2023-03-06T20:13:51.076Z,98808.53
2023-03-06T20:16:19.867Z,98800.44
2023-03-06T20:18:47.237Z,98810.00
2023-03-06T20:21:15.701Z,98807.38
2023-03-06T20:23:43.344Z,98784.09
2023-03-06T20:26:12.964Z,98802.78
2023-03-06T20:28:41.882Z,98801.09
2023-03-06T20:31:13.504Z,98795.41
2023-03-06T20:33:40.810Z,98799.56
2023-03-06T20:36:21.759Z,98793.91
2023-03-06T20:38:49.469Z,98802.53
2023-03-06T20:41:22.798Z,98788.63
2023-03-06T20:43:50.840Z,98798.22
2023-03-06T20:46:20.294Z,98793.38
2023-03-06T20:48:49.982Z,98782.03
2023-03-06T20:51:36.265Z,98792.25
2023-03-06T20:54:03.969Z,98796.63
2023-03-06T20:56:33.443Z,98792.47
2023-03-06T20:59:01.249Z,98783.22
2023-03-06T21:01:35.386Z,98779.72
2023-03-06T21:04:06.960Z,98786.38
2023-03-06T21:06:34.883Z,98790.09
2023-03-06T21:09:02.915Z,98781.41
2023-03-06T21:11:30.576Z,98776.19
2023-03-06T21:13:58.236Z,98780.59
2023-03-06T21:16:27.477Z,98773.50
2023-03-06T21:18:55.488Z,98761.59
2023-03-06T21:21:25.301Z,98776.25
2023-03-06T21:23:52.791Z,98769.03
2023-03-06T21:26:22.902Z,98768.03
2023-03-06T21:28:50.531Z,98765.63
2023-03-06T21:31:20.699Z,98776.69
2023-03-06T21:33:49.584Z,98773.69
2023-03-06T21:36:18.826Z,98773.41
2023-03-06T21:38:47.831Z,98760.81
2023-03-06T21:41:18.322Z,98763.19
2023-03-06T21:43:45.671Z,98764.13
2023-03-06T21:46:13.625Z,98751.38
2023-03-06T21:48:41.505Z,98761.09
2023-03-06T21:51:12.332Z,98754.03
2023-03-06T21:53:42.510Z,98760.91
2023-03-06T21:56:10.985Z,98762.97
2023-03-06T21:58:38.307Z,98760.78
2023-03-06T22:01:22.182Z,98757.94
2023-03-06T22:03:49.964Z,98761.09
2023-03-06T22:06:20.316Z,98765.53
2023-03-06T22:08:47.672Z,98762.38
2023-03-06T22:11:20.094Z,98761.47
2023-03-06T22:13:50.572Z,98750.16
2023-03-06T22:16:18.552Z,98738.88
2023-03-06T22:18:47.662Z,98751.06
2023-03-06T22:21:17.387Z,98757.94
2023-03-06T22:23:48.337Z,98754.13
2023-03-06T22:26:16.042Z,98747.44
2023-03-06T22:28:43.335Z,98748.53
2023-03-06T22:31:19.786Z,98734.25
2023-03-06T22:33:50.065Z,98747.56
2023-03-06T22:36:18.267Z,98741.44
2023-03-06T22:38:46.611Z,98744.72
2023-03-06T22:41:16.670Z,98732.19
2023-03-06T22:43:44.321Z,98739.38
2023-03-06T22:46:14.354Z,98724.00
2023-03-06T22:48:41.970Z,98723.16
2023-03-06T22:51:12.077Z,98731.13
2023-03-06T22:53:39.946Z,98732.59
2023-03-06T22:56:10.888Z,98736.00
2023-03-06T22:58:39.113Z,98735.06
2023-03-06T23:01:12.490Z,98720.50
2023-03-06T23:03:42.652Z,98731.59
2023-03-06T23:06:21.924Z,98723.03
2023-03-06T23:08:52.198Z,98731.44
2023-03-06T23:11:21.283Z,98733.31
2023-03-06T23:14:07.229Z,98729.91
2023-03-06T23:16:53.520Z,98731.28
2023-03-06T23:19:39.580Z,98730.94
2023-03-06T23:22:26.456Z,98739.94
2023-03-06T23:25:12.692Z,98718.22
2023-03-06T23:27:41.160Z,98723.78
2023-03-06T23:30:09.510Z,98723.19
2023-03-06T23:32:37.169Z,98714.75
2023-03-06T23:35:04.764Z,98722.09
2023-03-06T23:37:32.304Z,98720.19
2023-03-06T23:39:59.741Z,98711.25
2023-03-06T23:42:27.350Z,98716.22
2023-03-06T23:44:54.597Z,98721.69
2023-03-06T23:47:22.164Z,98713.91
2023-03-06T23:49:49.453Z,98719.78
2023-03-06T23:52:17.040Z,98711.59
2023-03-06T23:54:44.479Z,98713.47
2023-03-06T23:57:12.003Z,98711.25
2023-03-06T23:59:39.211Z,98709.25
